sensor_id;sensor_type;location;lat;lon;timestamp;P1;durP1;ratioP1;P2;durP2;ratioP2
84915;SDS011;75178;53.054;5.846;2024-02-16T00:02:16;15.77;;;4.50;;
84915;SDS011;75178;53.054;5.846;2024-02-16T00:05:00;10.52;;;4.80;;
84915;SDS011;75178;53.054;5.846;2024-02-16T00:07:45;8.73;;;4.68;;
84915;SDS011;75178;53.054;5.846;2024-02-16T00:10:29;9.68;;;5.35;;
84915;SDS011;75178;53.054;5.846;2024-02-16T00:13:15;11.00;;;4.78;;
84915;SDS011;75178;53.054;5.846;2024-02-16T00:15:59;6.30;;;4.15;;
84915;SDS011;75178;53.054;5.846;2024-02-16T00:18:43;10.73;;;4.65;;
84915;SDS011;75178;53.054;5.846;2024-02-16T00:21:27;8.80;;;4.32;;
84915;SDS011;75178;53.054;5.846;2024-02-16T00:24:11;7.93;;;3.97;;
84915;SDS011;75178;53.054;5.846;2024-02-16T00:26:56;7.55;;;4.05;;
84915;SDS011;75178;53.054;5.846;2024-02-16T00:29:41;12.02;;;4.70;;
84915;SDS011;75178;53.054;5.846;2024-02-16T00:32:26;9.50;;;4.28;;
84915;SDS011;75178;53.054;5.846;2024-02-16T00:35:10;10.10;;;4.32;;
84915;SDS011;75178;53.054;5.846;2024-02-16T00:37:54;8.18;;;3.85;;
84915;SDS011;75178;53.054;5.846;2024-02-16T00:40:38;8.23;;;4.05;;
84915;SDS011;75178;53.054;5.846;2024-02-16T00:43:23;9.40;;;3.85;;
84915;SDS011;75178;53.054;5.846;2024-02-16T00:46:08;5.85;;;3.88;;
84915;SDS011;75178;53.054;5.846;2024-02-16T00:48:52;8.75;;;3.97;;
84915;SDS011;75178;53.054;5.846;2024-02-16T00:51:37;6.93;;;3.17;;
84915;SDS011;75178;53.054;5.846;2024-02-16T00:54:21;6.78;;;3.72;;
84915;SDS011;75178;53.054;5.846;2024-02-16T00:57:05;8.00;;;3.65;;
84915;SDS011;75178;53.054;5.846;2024-02-16T00:59:49;6.75;;;3.67;;
84915;SDS011;75178;53.054;5.846;2024-02-16T01:02:35;9.45;;;4.00;;
84915;SDS011;75178;53.054;5.846;2024-02-16T01:05:19;8.27;;;3.85;;
84915;SDS011;75178;53.054;5.846;2024-02-16T01:08:04;12.45;;;3.78;;
84915;SDS011;75178;53.054;5.846;2024-02-16T01:10:48;7.25;;;4.03;;
84915;SDS011;75178;53.054;5.846;2024-02-16T01:13:32;8.05;;;4.63;;
84915;SDS011;75178;53.054;5.846;2024-02-16T01:16:16;7.53;;;3.60;;
84915;SDS011;75178;53.054;5.846;2024-02-16T01:19:02;7.28;;;3.63;;
84915;SDS011;75178;53.054;5.846;2024-02-16T01:21:46;7.85;;;3.90;;
84915;SDS011;75178;53.054;5.846;2024-02-16T01:24:30;8.38;;;3.47;;
84915;SDS011;75178;53.054;5.846;2024-02-16T01:27:15;6.43;;;3.35;;
84915;SDS011;75178;53.054;5.846;2024-02-16T01:30:00;8.32;;;3.65;;
84915;SDS011;75178;53.054;5.846;2024-02-16T01:32:44;9.45;;;3.75;;
84915;SDS011;75178;53.054;5.846;2024-02-16T01:35:29;9.38;;;3.90;;
84915;SDS011;75178;53.054;5.846;2024-02-16T01:38:13;12.95;;;3.58;;
84915;SDS011;75178;53.054;5.846;2024-02-16T01:40:57;8.52;;;3.72;;
84915;SDS011;75178;53.054;5.846;2024-02-16T01:43:41;6.93;;;3.65;;
84915;SDS011;75178;53.054;5.846;2024-02-16T01:46:26;4.75;;;3.10;;
84915;SDS011;75178;53.054;5.846;2024-02-16T01:49:10;7.78;;;3.17;;
84915;SDS011;75178;53.054;5.846;2024-02-16T01:51:56;8.27;;;3.17;;
84915;SDS011;75178;53.054;5.846;2024-02-16T01:54:40;11.07;;;3.50;;
84915;SDS011;75178;53.054;5.846;2024-02-16T01:57:24;5.90;;;3.38;;
84915;SDS011;75178;53.054;5.846;2024-02-16T02:00:10;8.85;;;3.63;;
84915;SDS011;75178;53.054;5.846;2024-02-16T02:02:55;7.93;;;3.65;;
84915;SDS011;75178;53.054;5.846;2024-02-16T02:05:43;5.35;;;3.70;;
84915;SDS011;75178;53.054;5.846;2024-02-16T02:08:29;7.32;;;3.63;;
84915;SDS011;75178;53.054;5.846;2024-02-16T02:11:13;9.55;;;3.63;;
84915;SDS011;75178;53.054;5.846;2024-02-16T02:13:57;14.02;;;4.00;;
84915;SDS011;75178;53.054;5.846;2024-02-16T02:16:41;8.32;;;3.30;;
84915;SDS011;75178;53.054;5.846;2024-02-16T02:19:26;5.63;;;2.90;;
84915;SDS011;75178;53.054;5.846;2024-02-16T02:22:13;10.93;;;3.70;;
84915;SDS011;75178;53.054;5.846;2024-02-16T02:24:59;5.47;;;3.00;;
84915;SDS011;75178;53.054;5.846;2024-02-16T02:27:43;11.77;;;4.05;;
84915;SDS011;75178;53.054;5.846;2024-02-16T02:30:27;8.32;;;3.42;;
84915;SDS011;75178;53.054;5.846;2024-02-16T02:33:11;11.32;;;3.65;;
84915;SDS011;75178;53.054;5.846;2024-02-16T02:35:55;6.20;;;3.30;;
84915;SDS011;75178;53.054;5.846;2024-02-16T02:38:41;6.63;;;3.30;;
84915;SDS011;75178;53.054;5.846;2024-02-16T02:41:25;7.18;;;2.92;;
84915;SDS011;75178;53.054;5.846;2024-02-16T02:44:10;3.97;;;3.05;;
84915;SDS011;75178;53.054;5.846;2024-02-16T02:46:54;7.18;;;3.65;;
84915;SDS011;75178;53.054;5.846;2024-02-16T02:49:38;5.18;;;3.15;;
84915;SDS011;75178;53.054;5.846;2024-02-16T02:52:22;6.18;;;3.30;;
84915;SDS011;75178;53.054;5.846;2024-02-16T02:55:08;4.72;;;2.63;;
84915;SDS011;75178;53.054;5.846;2024-02-16T02:57:52;12.45;;;3.58;;
84915;SDS011;75178;53.054;5.846;2024-02-16T03:00:36;5.78;;;2.95;;
84915;SDS011;75178;53.054;5.846;2024-02-16T03:03:21;6.97;;;3.22;;
84915;SDS011;75178;53.054;5.846;2024-02-16T03:06:06;9.55;;;3.65;;
84915;SDS011;75178;53.054;5.846;2024-02-16T03:08:51;9.02;;;3.08;;
84915;SDS011;75178;53.054;5.846;2024-02-16T03:11:36;5.60;;;2.95;;
84915;SDS011;75178;53.054;5.846;2024-02-16T03:14:21;6.97;;;2.65;;
84915;SDS011;75178;53.054;5.846;2024-02-16T03:17:05;6.28;;;3.08;;
84915;SDS011;75178;53.054;5.846;2024-02-16T03:19:49;8.20;;;3.00;;
84915;SDS011;75178;53.054;5.846;2024-02-16T03:22:33;7.10;;;2.90;;
84915;SDS011;75178;53.054;5.846;2024-02-16T03:25:18;7.07;;;2.85;;
84915;SDS011;75178;53.054;5.846;2024-02-16T03:28:03;6.20;;;2.85;;
84915;SDS011;75178;53.054;5.846;2024-02-16T03:30:48;6.85;;;3.15;;
84915;SDS011;75178;53.054;5.846;2024-02-16T03:33:32;6.70;;;3.00;;
84915;SDS011;75178;53.054;5.846;2024-02-16T03:36:16;7.95;;;3.40;;
84915;SDS011;75178;53.054;5.846;2024-02-16T03:39:01;5.90;;;2.97;;
84915;SDS011;75178;53.054;5.846;2024-02-16T03:41:46;8.00;;;3.05;;
84915;SDS011;75178;53.054;5.846;2024-02-16T03:44:31;6.50;;;2.97;;
84915;SDS011;75178;53.054;5.846;2024-02-16T03:47:16;8.32;;;3.40;;
84915;SDS011;75178;53.054;5.846;2024-02-16T03:50:00;8.55;;;3.15;;
84915;SDS011;75178;53.054;5.846;2024-02-16T03:52:44;5.93;;;3.10;;
84915;SDS011;75178;53.054;5.846;2024-02-16T03:55:28;8.20;;;3.20;;
84915;SDS011;75178;53.054;5.846;2024-02-16T03:58:13;5.70;;;3.47;;
84915;SDS011;75178;53.054;5.846;2024-02-16T04:00:58;6.53;;;3.15;;
84915;SDS011;75178;53.054;5.846;2024-02-16T04:03:42;8.30;;;3.50;;
84915;SDS011;75178;53.054;5.846;2024-02-16T04:06:26;7.70;;;3.28;;
84915;SDS011;75178;53.054;5.846;2024-02-16T04:09:10;8.25;;;3.63;;
84915;SDS011;75178;53.054;5.846;2024-02-16T04:11:55;5.22;;;3.00;;
84915;SDS011;75178;53.054;5.846;2024-02-16T04:14:39;6.65;;;2.80;;
84915;SDS011;75178;53.054;5.846;2024-02-16T04:17:24;6.63;;;3.15;;
84915;SDS011;75178;53.054;5.846;2024-02-16T04:20:09;7.18;;;3.15;;
84915;SDS011;75178;53.054;5.846;2024-02-16T04:22:53;6.78;;;3.20;;
84915;SDS011;75178;53.054;5.846;2024-02-16T04:25:38;3.25;;;2.70;;
84915;SDS011;75178;53.054;5.846;2024-02-16T04:28:22;8.20;;;3.40;;
84915;SDS011;75178;53.054;5.846;2024-02-16T04:31:06;7.80;;;3.78;;
84915;SDS011;75178;53.054;5.846;2024-02-16T04:33:51;7.22;;;3.40;;
84915;SDS011;75178;53.054;5.846;2024-02-16T04:36:35;7.53;;;3.20;;
84915;SDS011;75178;53.054;5.846;2024-02-16T04:39:20;5.88;;;3.08;;
84915;SDS011;75178;53.054;5.846;2024-02-16T04:42:04;6.70;;;3.50;;
84915;SDS011;75178;53.054;5.846;2024-02-16T04:44:48;6.00;;;3.05;;
84915;SDS011;75178;53.054;5.846;2024-02-16T04:47:32;6.65;;;3.58;;
84915;SDS011;75178;53.054;5.846;2024-02-16T04:50:18;5.60;;;3.30;;
84915;SDS011;75178;53.054;5.846;2024-02-16T04:53:02;10.45;;;3.63;;
84915;SDS011;75178;53.054;5.846;2024-02-16T04:55:47;6.43;;;3.50;;
84915;SDS011;75178;53.054;5.846;2024-02-16T04:58:31;6.32;;;3.65;;
84915;SDS011;75178;53.054;5.846;2024-02-16T05:01:15;5.18;;;3.30;;
84915;SDS011;75178;53.054;5.846;2024-02-16T05:04:00;5.82;;;3.35;;
84915;SDS011;75178;53.054;5.846;2024-02-16T05:06:45;6.85;;;3.63;;
84915;SDS011;75178;53.054;5.846;2024-02-16T05:09:31;10.50;;;3.20;;
84915;SDS011;75178;53.054;5.846;2024-02-16T05:12:15;8.35;;;3.78;;
84915;SDS011;75178;53.054;5.846;2024-02-16T05:14:59;8.30;;;3.35;;
84915;SDS011;75178;53.054;5.846;2024-02-16T05:17:46;7.50;;;3.13;;
84915;SDS011;75178;53.054;5.846;2024-02-16T05:20:31;12.43;;;3.70;;
84915;SDS011;75178;53.054;5.846;2024-02-16T05:23:16;7.90;;;3.60;;
84915;SDS011;75178;53.054;5.846;2024-02-16T05:26:00;8.43;;;3.25;;
84915;SDS011;75178;53.054;5.846;2024-02-16T05:28:45;7.47;;;3.40;;
84915;SDS011;75178;53.054;5.846;2024-02-16T05:31:29;4.10;;;3.17;;
84915;SDS011;75178;53.054;5.846;2024-02-16T05:34:13;4.20;;;2.95;;
84915;SDS011;75178;53.054;5.846;2024-02-16T05:36:57;7.00;;;3.25;;
84915;SDS011;75178;53.054;5.846;2024-02-16T05:39:43;8.80;;;3.30;;
84915;SDS011;75178;53.054;5.846;2024-02-16T05:42:27;5.10;;;3.55;;
84915;SDS011;75178;53.054;5.846;2024-02-16T05:45:11;6.88;;;3.40;;
84915;SDS011;75178;53.054;5.846;2024-02-16T05:47:55;10.40;;;3.42;;
84915;SDS011;75178;53.054;5.846;2024-02-16T05:50:40;7.10;;;3.47;;
84915;SDS011;75178;53.054;5.846;2024-02-16T05:53:25;6.38;;;3.25;;
84915;SDS011;75178;53.054;5.846;2024-02-16T05:56:10;8.30;;;3.13;;
84915;SDS011;75178;53.054;5.846;2024-02-16T05:58:54;7.70;;;3.45;;
84915;SDS011;75178;53.054;5.846;2024-02-16T06:01:39;7.47;;;3.53;;
84915;SDS011;75178;53.054;5.846;2024-02-16T06:04:23;8.43;;;4.07;;
84915;SDS011;75178;53.054;5.846;2024-02-16T06:07:07;11.63;;;3.75;;
84915;SDS011;75178;53.054;5.846;2024-02-16T06:09:51;8.68;;;3.90;;
84915;SDS011;75178;53.054;5.846;2024-02-16T06:12:39;10.32;;;4.80;;
84915;SDS011;75178;53.054;5.846;2024-02-16T06:15:24;14.88;;;5.55;;
84915;SDS011;75178;53.054;5.846;2024-02-16T06:18:08;11.80;;;5.13;;
84915;SDS011;75178;53.054;5.846;2024-02-16T06:20:52;5.90;;;3.53;;
84915;SDS011;75178;53.054;5.846;2024-02-16T06:23:36;5.07;;;3.30;;
84915;SDS011;75178;53.054;5.846;2024-02-16T06:26:24;6.28;;;3.35;;
84915;SDS011;75178;53.054;5.846;2024-02-16T06:29:09;7.05;;;3.30;;
84915;SDS011;75178;53.054;5.846;2024-02-16T06:31:53;6.75;;;3.10;;
84915;SDS011;75178;53.054;5.846;2024-02-16T06:34:38;7.90;;;3.97;;
84915;SDS011;75178;53.054;5.846;2024-02-16T06:37:22;6.60;;;3.63;;
84915;SDS011;75178;53.054;5.846;2024-02-16T06:40:06;7.63;;;3.90;;
84915;SDS011;75178;53.054;5.846;2024-02-16T06:42:51;7.80;;;3.25;;
84915;SDS011;75178;53.054;5.846;2024-02-16T06:45:37;5.53;;;3.38;;
84915;SDS011;75178;53.054;5.846;2024-02-16T06:48:21;9.27;;;3.67;;
84915;SDS011;75178;53.054;5.846;2024-02-16T06:51:05;9.85;;;3.78;;
84915;SDS011;75178;53.054;5.846;2024-02-16T06:53:49;8.25;;;4.13;;
84915;SDS011;75178;53.054;5.846;2024-02-16T06:56:33;5.97;;;3.83;;
84915;SDS011;75178;53.054;5.846;2024-02-16T06:59:17;5.45;;;3.80;;
84915;SDS011;75178;53.054;5.846;2024-02-16T07:02:03;7.40;;;3.90;;
84915;SDS011;75178;53.054;5.846;2024-02-16T07:04:47;6.13;;;4.07;;
84915;SDS011;75178;53.054;5.846;2024-02-16T07:07:31;9.80;;;3.35;;
84915;SDS011;75178;53.054;5.846;2024-02-16T07:10:16;8.52;;;3.47;;
84915;SDS011;75178;53.054;5.846;2024-02-16T07:13:00;6.65;;;3.67;;
84915;SDS011;75178;53.054;5.846;2024-02-16T07:15:44;7.80;;;3.83;;
84915;SDS011;75178;53.054;5.846;2024-02-16T07:18:30;8.50;;;3.72;;
84915;SDS011;75178;53.054;5.846;2024-02-16T07:21:14;10.48;;;4.28;;
84915;SDS011;75178;53.054;5.846;2024-02-16T07:23:58;6.30;;;3.90;;
84915;SDS011;75178;53.054;5.846;2024-02-16T07:26:42;7.15;;;4.18;;
84915;SDS011;75178;53.054;5.846;2024-02-16T07:29:29;8.65;;;4.07;;
84915;SDS011;75178;53.054;5.846;2024-02-16T07:32:13;8.82;;;3.97;;
84915;SDS011;75178;53.054;5.846;2024-02-16T07:34:59;10.48;;;4.28;;
84915;SDS011;75178;53.054;5.846;2024-02-16T07:37:43;7.38;;;4.03;;
84915;SDS011;75178;53.054;5.846;2024-02-16T07:40:28;8.52;;;4.05;;
84915;SDS011;75178;53.054;5.846;2024-02-16T07:43:12;9.35;;;3.63;;
84915;SDS011;75178;53.054;5.846;2024-02-16T07:45:56;9.80;;;4.72;;
84915;SDS011;75178;53.054;5.846;2024-02-16T07:48:40;8.93;;;4.55;;
84915;SDS011;75178;53.054;5.846;2024-02-16T07:51:25;8.32;;;4.50;;
84915;SDS011;75178;53.054;5.846;2024-02-16T07:54:11;10.20;;;4.40;;
84915;SDS011;75178;53.054;5.846;2024-02-16T08:27:26;7.28;;;3.95;;
84915;SDS011;75178;53.054;5.846;2024-02-16T08:30:10;6.72;;;4.40;;
84915;SDS011;75178;53.054;5.846;2024-02-16T08:32:55;7.38;;;4.07;;
84915;SDS011;75178;53.054;5.846;2024-02-16T08:35:39;10.20;;;4.45;;
84915;SDS011;75178;53.054;5.846;2024-02-16T08:38:23;7.20;;;4.43;;
84915;SDS011;75178;53.054;5.846;2024-02-16T08:41:07;6.35;;;4.22;;
84915;SDS011;75178;53.054;5.846;2024-02-16T08:43:52;8.60;;;4.93;;
84915;SDS011;75178;53.054;5.846;2024-02-16T08:46:37;5.78;;;3.97;;
84915;SDS011;75178;53.054;5.846;2024-02-16T08:49:21;7.55;;;4.43;;
84915;SDS011;75178;53.054;5.846;2024-02-16T08:52:05;6.43;;;4.38;;
84915;SDS011;75178;53.054;5.846;2024-02-16T08:54:49;8.93;;;4.72;;
84915;SDS011;75178;53.054;5.846;2024-02-16T08:57:33;8.40;;;4.00;;
84915;SDS011;75178;53.054;5.846;2024-02-16T09:00:19;8.60;;;4.45;;
84915;SDS011;75178;53.054;5.846;2024-02-16T09:03:04;7.60;;;4.43;;
84915;SDS011;75178;53.054;5.846;2024-02-16T09:05:48;9.00;;;4.95;;
84915;SDS011;75178;53.054;5.846;2024-02-16T09:08:32;9.63;;;4.53;;
84915;SDS011;75178;53.054;5.846;2024-02-16T09:11:16;8.23;;;4.35;;
84915;SDS011;75178;53.054;5.846;2024-02-16T09:14:00;12.38;;;5.30;;
84915;SDS011;75178;53.054;5.846;2024-02-16T09:16:46;7.15;;;4.57;;
84915;SDS011;75178;53.054;5.846;2024-02-16T09:19:32;12.35;;;4.78;;
84915;SDS011;75178;53.054;5.846;2024-02-16T09:22:16;11.27;;;4.82;;
84915;SDS011;75178;53.054;5.846;2024-02-16T09:25:00;6.68;;;4.68;;
84915;SDS011;75178;53.054;5.846;2024-02-16T09:27:44;8.95;;;5.03;;
84915;SDS011;75178;53.054;5.846;2024-02-16T09:30:28;6.38;;;4.22;;
84915;SDS011;75178;53.054;5.846;2024-02-16T09:33:14;8.05;;;4.78;;
84915;SDS011;75178;53.054;5.846;2024-02-16T09:35:58;8.32;;;4.72;;
84915;SDS011;75178;53.054;5.846;2024-02-16T09:38:42;11.98;;;5.20;;
84915;SDS011;75178;53.054;5.846;2024-02-16T09:41:26;9.27;;;5.40;;
84915;SDS011;75178;53.054;5.846;2024-02-16T09:44:10;8.45;;;5.15;;
84915;SDS011;75178;53.054;5.846;2024-02-16T09:46:55;8.52;;;5.28;;
84915;SDS011;75178;53.054;5.846;2024-02-16T09:49:41;12.02;;;5.63;;
84915;SDS011;75178;53.054;5.846;2024-02-16T09:52:26;7.65;;;5.57;;
84915;SDS011;75178;53.054;5.846;2024-02-16T09:55:11;10.18;;;5.82;;
84915;SDS011;75178;53.054;5.846;2024-02-16T09:58:00;8.55;;;5.43;;
84915;SDS011;75178;53.054;5.846;2024-02-16T10:00:48;9.68;;;5.70;;
84915;SDS011;75178;53.054;5.846;2024-02-16T10:03:33;14.43;;;5.30;;
84915;SDS011;75178;53.054;5.846;2024-02-16T10:06:18;12.32;;;6.00;;
84915;SDS011;75178;53.054;5.846;2024-02-16T10:09:03;14.48;;;5.53;;
84915;SDS011;75178;53.054;5.846;2024-02-16T10:11:47;9.90;;;5.45;;
84915;SDS011;75178;53.054;5.846;2024-02-16T10:14:31;10.52;;;6.35;;
84915;SDS011;75178;53.054;5.846;2024-02-16T10:17:16;13.90;;;5.93;;
84915;SDS011;75178;53.054;5.846;2024-02-16T10:20:06;10.30;;;6.22;;
84915;SDS011;75178;53.054;5.846;2024-02-16T10:26:11;15.48;;;7.47;;
84915;SDS011;75178;53.054;5.846;2024-02-16T10:28:56;23.17;;;8.00;;
84915;SDS011;75178;53.054;5.846;2024-02-16T10:31:41;14.25;;;8.10;;
84915;SDS011;75178;53.054;5.846;2024-02-16T10:34:26;21.38;;;8.38;;
84915;SDS011;75178;53.054;5.846;2024-02-16T10:37:13;27.15;;;10.02;;
84915;SDS011;75178;53.054;5.846;2024-02-16T10:39:58;31.75;;;10.48;;
84915;SDS011;75178;53.054;5.846;2024-02-16T10:42:45;32.45;;;11.15;;
84915;SDS011;75178;53.054;5.846;2024-02-16T10:45:33;29.00;;;10.90;;
84915;SDS011;75178;53.054;5.846;2024-02-16T10:48:18;36.00;;;11.52;;
84915;SDS011;75178;53.054;5.846;2024-02-16T10:51:02;32.70;;;11.07;;
84915;SDS011;75178;53.054;5.846;2024-02-16T10:53:47;29.20;;;10.75;;
84915;SDS011;75178;53.054;5.846;2024-02-16T10:56:35;27.30;;;10.43;;
84915;SDS011;75178;53.054;5.846;2024-02-16T10:59:22;24.48;;;10.18;;
84915;SDS011;75178;53.054;5.846;2024-02-16T11:02:06;17.20;;;9.55;;
84915;SDS011;75178;53.054;5.846;2024-02-16T11:04:51;20.58;;;8.82;;
84915;SDS011;75178;53.054;5.846;2024-02-16T11:07:36;16.60;;;7.93;;
84915;SDS011;75178;53.054;5.846;2024-02-16T11:10:20;12.73;;;7.43;;
84915;SDS011;75178;53.054;5.846;2024-02-16T11:13:04;17.20;;;7.97;;
84915;SDS011;75178;53.054;5.846;2024-02-16T11:15:49;12.52;;;7.18;;
84915;SDS011;75178;53.054;5.846;2024-02-16T11:18:41;14.05;;;6.82;;
84915;SDS011;75178;53.054;5.846;2024-02-16T11:21:26;11.90;;;6.30;;
84915;SDS011;75178;53.054;5.846;2024-02-16T11:24:10;12.40;;;6.03;;
84915;SDS011;75178;53.054;5.846;2024-02-16T11:26:57;12.50;;;5.85;;
84915;SDS011;75178;53.054;5.846;2024-02-16T11:29:41;9.60;;;6.00;;
84915;SDS011;75178;53.054;5.846;2024-02-16T11:32:27;9.65;;;5.75;;
84915;SDS011;75178;53.054;5.846;2024-02-16T11:35:15;11.30;;;6.55;;
84915;SDS011;75178;53.054;5.846;2024-02-16T11:37:59;10.40;;;6.07;;
84915;SDS011;75178;53.054;5.846;2024-02-16T11:40:52;9.98;;;5.95;;
84915;SDS011;75178;53.054;5.846;2024-02-16T11:43:37;9.75;;;6.25;;
84915;SDS011;75178;53.054;5.846;2024-02-16T11:46:21;12.25;;;6.32;;
84915;SDS011;75178;53.054;5.846;2024-02-16T11:49:07;11.80;;;5.22;;
84915;SDS011;75178;53.054;5.846;2024-02-16T11:51:52;8.93;;;5.30;;
84915;SDS011;75178;53.054;5.846;2024-02-16T11:54:36;9.40;;;6.15;;
84915;SDS011;75178;53.054;5.846;2024-02-16T11:57:20;8.32;;;4.95;;
84915;SDS011;75178;53.054;5.846;2024-02-16T12:00:05;10.50;;;5.15;;
84915;SDS011;75178;53.054;5.846;2024-02-16T12:02:58;9.45;;;5.10;;
84915;SDS011;75178;53.054;5.846;2024-02-16T12:05:50;8.00;;;5.03;;
84915;SDS011;75178;53.054;5.846;2024-02-16T12:08:35;5.82;;;4.10;;
84915;SDS011;75178;53.054;5.846;2024-02-16T12:11:19;6.90;;;4.18;;
84915;SDS011;75178;53.054;5.846;2024-02-16T12:14:03;5.97;;;3.83;;
84915;SDS011;75178;53.054;5.846;2024-02-16T12:16:48;4.95;;;3.13;;
84915;SDS011;75178;53.054;5.846;2024-02-16T12:19:32;4.05;;;3.28;;
84915;SDS011;75178;53.054;5.846;2024-02-16T12:22:17;3.15;;;2.67;;
84915;SDS011;75178;53.054;5.846;2024-02-16T12:25:03;4.13;;;2.80;;
84915;SDS011;75178;53.054;5.846;2024-02-16T12:27:47;4.18;;;1.95;;
84915;SDS011;75178;53.054;5.846;2024-02-16T12:30:32;2.42;;;2.00;;
84915;SDS011;75178;53.054;5.846;2024-02-16T12:33:16;2.92;;;2.00;;
84915;SDS011;75178;53.054;5.846;2024-02-16T12:36:00;2.63;;;2.13;;
84915;SDS011;75178;53.054;5.846;2024-02-16T12:38:45;6.43;;;1.90;;
84915;SDS011;75178;53.054;5.846;2024-02-16T12:41:30;8.38;;;2.20;;
84915;SDS011;75178;53.054;5.846;2024-02-16T12:44:14;2.90;;;1.80;;
84915;SDS011;75178;53.054;5.846;2024-02-16T12:46:58;5.38;;;1.85;;
84915;SDS011;75178;53.054;5.846;2024-02-16T12:49:42;3.55;;;2.03;;
84915;SDS011;75178;53.054;5.846;2024-02-16T12:52:26;3.33;;;1.88;;
84915;SDS011;75178;53.054;5.846;2024-02-16T12:55:12;9.07;;;2.65;;
84915;SDS011;75178;53.054;5.846;2024-02-16T12:57:56;6.40;;;2.05;;
84915;SDS011;75178;53.054;5.846;2024-02-16T13:00:40;5.53;;;2.30;;
84915;SDS011;75178;53.054;5.846;2024-02-16T13:03:24;7.40;;;2.15;;
84915;SDS011;75178;53.054;5.846;2024-02-16T13:06:08;3.13;;;1.95;;
84915;SDS011;75178;53.054;5.846;2024-02-16T13:08:53;5.47;;;2.92;;
84915;SDS011;75178;53.054;5.846;2024-02-16T13:11:39;4.65;;;3.00;;
84915;SDS011;75178;53.054;5.846;2024-02-16T13:14:23;9.60;;;4.13;;
84915;SDS011;75178;53.054;5.846;2024-02-16T13:17:07;8.85;;;3.72;;
84915;SDS011;75178;53.054;5.846;2024-02-16T13:19:51;6.32;;;4.03;;
84915;SDS011;75178;53.054;5.846;2024-02-16T13:22:35;7.55;;;4.25;;
84915;SDS011;75178;53.054;5.846;2024-02-16T13:25:20;5.07;;;3.70;;
84915;SDS011;75178;53.054;5.846;2024-02-16T13:28:06;6.50;;;3.45;;
84915;SDS011;75178;53.054;5.846;2024-02-16T13:30:50;7.22;;;3.90;;
84915;SDS011;75178;53.054;5.846;2024-02-16T13:33:35;9.40;;;4.78;;
84915;SDS011;75178;53.054;5.846;2024-02-16T13:36:19;12.20;;;4.97;;
84915;SDS011;75178;53.054;5.846;2024-02-16T13:39:03;11.10;;;4.88;;
84915;SDS011;75178;53.054;5.846;2024-02-16T13:41:47;10.23;;;5.35;;
84915;SDS011;75178;53.054;5.846;2024-02-16T13:44:33;13.45;;;5.18;;
84915;SDS011;75178;53.054;5.846;2024-02-16T13:47:18;18.88;;;5.90;;
84915;SDS011;75178;53.054;5.846;2024-02-16T13:50:02;12.38;;;5.60;;
84915;SDS011;75178;53.054;5.846;2024-02-16T13:52:47;14.75;;;5.70;;
84915;SDS011;75178;53.054;5.846;2024-02-16T13:55:31;14.13;;;5.90;;
84915;SDS011;75178;53.054;5.846;2024-02-16T13:58:15;20.42;;;6.50;;
84915;SDS011;75178;53.054;5.846;2024-02-16T14:01:00;13.45;;;5.80;;
84915;SDS011;75178;53.054;5.846;2024-02-16T14:03:45;11.02;;;5.20;;
84915;SDS011;75178;53.054;5.846;2024-02-16T14:06:30;13.15;;;5.57;;
84915;SDS011;75178;53.054;5.846;2024-02-16T14:09:14;19.23;;;6.00;;
84915;SDS011;75178;53.054;5.846;2024-02-16T14:11:58;12.60;;;5.43;;
84915;SDS011;75178;53.054;5.846;2024-02-16T14:14:42;15.20;;;5.90;;
84915;SDS011;75178;53.054;5.846;2024-02-16T14:17:28;13.98;;;5.28;;
84915;SDS011;75178;53.054;5.846;2024-02-16T14:20:12;14.77;;;5.90;;
84915;SDS011;75178;53.054;5.846;2024-02-16T14:22:56;16.95;;;5.90;;
84915;SDS011;75178;53.054;5.846;2024-02-16T14:25:43;13.02;;;5.43;;
84915;SDS011;75178;53.054;5.846;2024-02-16T14:28:27;12.25;;;4.63;;
84915;SDS011;75178;53.054;5.846;2024-02-16T14:31:11;11.52;;;4.80;;
84915;SDS011;75178;53.054;5.846;2024-02-16T14:33:58;17.55;;;6.03;;
84915;SDS011;75178;53.054;5.846;2024-02-16T14:36:42;13.75;;;5.13;;
84915;SDS011;75178;53.054;5.846;2024-02-16T14:39:26;19.05;;;6.35;;
84915;SDS011;75178;53.054;5.846;2024-02-16T14:42:14;18.00;;;5.93;;
84915;SDS011;75178;53.054;5.846;2024-02-16T14:44:59;15.82;;;6.28;;
84915;SDS011;75178;53.054;5.846;2024-02-16T14:47:44;18.90;;;7.47;;
84915;SDS011;75178;53.054;5.846;2024-02-16T14:50:31;23.75;;;7.88;;
84915;SDS011;75178;53.054;5.846;2024-02-16T14:53:16;15.80;;;7.78;;
84915;SDS011;75178;53.054;5.846;2024-02-16T14:56:05;15.23;;;7.75;;
84915;SDS011;75178;53.054;5.846;2024-02-16T14:58:50;18.15;;;7.43;;
84915;SDS011;75178;53.054;5.846;2024-02-16T15:01:37;18.15;;;7.43;;
84915;SDS011;75178;53.054;5.846;2024-02-16T15:04:22;20.65;;;8.80;;
84915;SDS011;75178;53.054;5.846;2024-02-16T15:07:09;17.75;;;8.25;;
84915;SDS011;75178;53.054;5.846;2024-02-16T15:09:53;20.50;;;8.50;;
84915;SDS011;75178;53.054;5.846;2024-02-16T15:12:38;18.65;;;8.65;;
84915;SDS011;75178;53.054;5.846;2024-02-16T15:15:27;19.88;;;7.80;;
84915;SDS011;75178;53.054;5.846;2024-02-16T15:18:12;19.15;;;7.25;;
84915;SDS011;75178;53.054;5.846;2024-02-16T15:20:57;15.40;;;7.07;;
84915;SDS011;75178;53.054;5.846;2024-02-16T15:23:43;11.10;;;6.55;;
84915;SDS011;75178;53.054;5.846;2024-02-16T15:26:28;11.98;;;6.82;;
84915;SDS011;75178;53.054;5.846;2024-02-16T15:29:12;12.57;;;6.97;;
84915;SDS011;75178;53.054;5.846;2024-02-16T15:31:57;11.15;;;6.25;;
84915;SDS011;75178;53.054;5.846;2024-02-16T15:34:42;10.45;;;6.03;;
84915;SDS011;75178;53.054;5.846;2024-02-16T15:37:29;16.70;;;5.40;;
84915;SDS011;75178;53.054;5.846;2024-02-16T15:40:14;12.25;;;4.88;;
84915;SDS011;75178;53.054;5.846;2024-02-16T15:42:59;14.00;;;5.32;;
84915;SDS011;75178;53.054;5.846;2024-02-16T15:45:44;13.38;;;5.70;;
84915;SDS011;75178;53.054;5.846;2024-02-16T15:48:28;12.25;;;5.07;;
84915;SDS011;75178;53.054;5.846;2024-02-16T15:51:13;15.63;;;6.18;;
84915;SDS011;75178;53.054;5.846;2024-02-16T15:53:57;15.38;;;6.47;;
84915;SDS011;75178;53.054;5.846;2024-02-16T15:56:42;17.83;;;7.10;;
84915;SDS011;75178;53.054;5.846;2024-02-16T15:59:26;15.63;;;6.25;;
84915;SDS011;75178;53.054;5.846;2024-02-16T16:02:10;16.70;;;7.57;;
84915;SDS011;75178;53.054;5.846;2024-02-16T16:04:55;15.70;;;8.18;;
84915;SDS011;75178;53.054;5.846;2024-02-16T16:07:39;19.48;;;9.98;;
84915;SDS011;75178;53.054;5.846;2024-02-16T16:10:24;22.35;;;10.50;;
84915;SDS011;75178;53.054;5.846;2024-02-16T16:13:09;21.08;;;9.50;;
84915;SDS011;75178;53.054;5.846;2024-02-16T16:15:53;19.27;;;10.10;;
84915;SDS011;75178;53.054;5.846;2024-02-16T16:18:38;17.80;;;10.20;;
84915;SDS011;75178;53.054;5.846;2024-02-16T16:21:22;16.95;;;8.05;;
84915;SDS011;75178;53.054;5.846;2024-02-16T16:24:06;13.07;;;7.55;;
84915;SDS011;75178;53.054;5.846;2024-02-16T16:26:50;15.05;;;7.57;;
84915;SDS011;75178;53.054;5.846;2024-02-16T16:29:36;18.73;;;9.30;;
84915;SDS011;75178;53.054;5.846;2024-02-16T16:32:20;14.50;;;8.45;;
84915;SDS011;75178;53.054;5.846;2024-02-16T16:35:04;15.40;;;8.98;;
84915;SDS011;75178;53.054;5.846;2024-02-16T16:37:49;18.27;;;9.98;;
84915;SDS011;75178;53.054;5.846;2024-02-16T16:40:33;18.67;;;10.60;;
84915;SDS011;75178;53.054;5.846;2024-02-16T16:43:17;25.10;;;10.50;;
84915;SDS011;75178;53.054;5.846;2024-02-16T16:46:02;19.50;;;10.98;;
84915;SDS011;75178;53.054;5.846;2024-02-16T16:48:48;15.50;;;9.90;;
84915;SDS011;75178;53.054;5.846;2024-02-16T16:51:33;20.45;;;11.13;;
84915;SDS011;75178;53.054;5.846;2024-02-16T16:54:17;23.88;;;12.13;;
84915;SDS011;75178;53.054;5.846;2024-02-16T16:57:01;26.88;;;10.77;;
84915;SDS011;75178;53.054;5.846;2024-02-16T16:59:45;21.73;;;11.45;;